sensor_id;sensor_type;location;lat;lon;timestamp;temperature;humidity
28336;DHT22;15592;53.656;7.276;2023-02-28T00:00:26;4.90;99.90
28336;DHT22;15592;53.656;7.276;2023-02-28T00:02:52;4.90;99.90
28336;DHT22;15592;53.656;7.276;2023-02-28T00:05:20;4.90;99.90
28336;DHT22;15592;53.656;7.276;2023-02-28T00:07:47;4.90;99.90
28336;DHT22;15592;53.656;7.276;2023-02-28T00:10:16;4.90;99.90
28336;DHT22;15592;53.656;7.276;2023-02-28T00:12:49;4.90;99.90
28336;DHT22;15592;53.656;7.276;2023-02-28T00:15:15;4.90;99.90
28336;DHT22;15592;53.656;7.276;2023-02-28T00:17:41;5.00;99.90
28336;DHT22;15592;53.656;7.276;2023-02-28T00:20:08;4.90;99.90
28336;DHT22;15592;53.656;7.276;2023-02-28T00:22:36;4.90;99.90
28336;DHT22;15592;53.656;7.276;2023-02-28T00:25:02;4.90;99.90
28336;DHT22;15592;53.656;7.276;2023-02-28T00:27:29;4.90;99.90
28336;DHT22;15592;53.656;7.276;2023-02-28T00:29:54;4.90;99.90
28336;DHT22;15592;53.656;7.276;2023-02-28T00:32:20;4.90;99.90
28336;DHT22;15592;53.656;7.276;2023-02-28T00:34:45;4.90;99.90
28336;DHT22;15592;53.656;7.276;2023-02-28T00:37:11;4.90;99.90
28336;DHT22;15592;53.656;7.276;2023-02-28T00:39:38;5.00;99.90
28336;DHT22;15592;53.656;7.276;2023-02-28T00:42:04;5.00;99.90
28336;DHT22;15592;53.656;7.276;2023-02-28T00:44:30;5.00;99.90
28336;DHT22;15592;53.656;7.276;2023-02-28T00:46:56;5.00;99.90
28336;DHT22;15592;53.656;7.276;2023-02-28T00:49:23;5.00;99.90
28336;DHT22;15592;53.656;7.276;2023-02-28T00:51:49;5.10;99.90
28336;DHT22;15592;53.656;7.276;2023-02-28T00:54:15;5.00;99.90
28336;DHT22;15592;53.656;7.276;2023-02-28T00:56:41;5.00;99.90
28336;DHT22;15592;53.656;7.276;2023-02-28T00:59:07;5.00;99.90
28336;DHT22;15592;53.656;7.276;2023-02-28T01:01:32;5.00;99.90
28336;DHT22;15592;53.656;7.276;2023-02-28T01:03:58;5.00;99.90
28336;DHT22;15592;53.656;7.276;2023-02-28T01:06:23;5.00;99.90
28336;DHT22;15592;53.656;7.276;2023-02-28T01:08:49;5.00;99.90
28336;DHT22;15592;53.656;7.276;2023-02-28T01:11:16;5.00;99.90
28336;DHT22;15592;53.656;7.276;2023-02-28T01:13:44;5.00;99.90
28336;DHT22;15592;53.656;7.276;2023-02-28T01:16:10;5.00;99.90
28336;DHT22;15592;53.656;7.276;2023-02-28T01:18:37;5.10;99.90
28336;DHT22;15592;53.656;7.276;2023-02-28T01:21:11;5.10;99.90
28336;DHT22;15592;53.656;7.276;2023-02-28T01:23:38;5.10;99.90
28336;DHT22;15592;53.656;7.276;2023-02-28T01:26:09;5.10;99.90
28336;DHT22;15592;53.656;7.276;2023-02-28T01:28:35;5.10;99.90
28336;DHT22;15592;53.656;7.276;2023-02-28T01:31:01;5.10;99.90
28336;DHT22;15592;53.656;7.276;2023-02-28T01:33:27;5.10;99.90
28336;DHT22;15592;53.656;7.276;2023-02-28T01:36:12;5.10;99.90
28336;DHT22;15592;53.656;7.276;2023-02-28T01:38:38;5.10;99.90
28336;DHT22;15592;53.656;7.276;2023-02-28T01:41:05;5.10;99.90
28336;DHT22;15592;53.656;7.276;2023-02-28T01:43:52;5.10;99.90
28336;DHT22;15592;53.656;7.276;2023-02-28T01:46:18;5.10;99.90
28336;DHT22;15592;53.656;7.276;2023-02-28T01:48:50;5.10;99.90
28336;DHT22;15592;53.656;7.276;2023-02-28T01:54:07;5.10;99.90
28336;DHT22;15592;53.656;7.276;2023-02-28T01:56:41;5.10;99.90
28336;DHT22;15592;53.656;7.276;2023-02-28T01:59:07;5.10;99.90
28336;DHT22;15592;53.656;7.276;2023-02-28T02:01:32;5.10;99.90
28336;DHT22;15592;53.656;7.276;2023-02-28T02:04:01;5.10;99.90
28336;DHT22;15592;53.656;7.276;2023-02-28T02:06:40;5.20;99.90
28336;DHT22;15592;53.656;7.276;2023-02-28T02:09:07;5.10;99.90
28336;DHT22;15592;53.656;7.276;2023-02-28T02:11:34;5.10;99.90
28336;DHT22;15592;53.656;7.276;2023-02-28T02:17:03;5.20;99.90
28336;DHT22;15592;53.656;7.276;2023-02-28T02:25:19;5.10;99.90
28336;DHT22;15592;53.656;7.276;2023-02-28T02:34:37;5.10;99.90
28336;DHT22;15592;53.656;7.276;2023-02-28T02:37:08;5.00;99.90
28336;DHT22;15592;53.656;7.276;2023-02-28T02:42:16;5.00;99.90
28336;DHT22;15592;53.656;7.276;2023-02-28T02:44:50;5.00;99.90
28336;DHT22;15592;53.656;7.276;2023-02-28T02:47:20;5.00;99.90
28336;DHT22;15592;53.656;7.276;2023-02-28T02:49:53;5.00;99.90
28336;DHT22;15592;53.656;7.276;2023-02-28T02:52:25;5.00;99.90
28336;DHT22;15592;53.656;7.276;2023-02-28T02:54:54;5.00;99.90
28336;DHT22;15592;53.656;7.276;2023-02-28T02:57:30;5.00;99.90
28336;DHT22;15592;53.656;7.276;2023-02-28T02:59:57;5.00;99.90
28336;DHT22;15592;53.656;7.276;2023-02-28T03:02:24;4.90;99.90
28336;DHT22;15592;53.656;7.276;2023-02-28T03:04:53;5.00;99.90
28336;DHT22;15592;53.656;7.276;2023-02-28T03:07:26;5.00;99.90
28336;DHT22;15592;53.656;7.276;2023-02-28T03:09:53;5.00;99.90
28336;DHT22;15592;53.656;7.276;2023-02-28T03:12:19;5.00;99.90
28336;DHT22;15592;53.656;7.276;2023-02-28T03:15:02;5.00;99.90
28336;DHT22;15592;53.656;7.276;2023-02-28T03:17:47;5.00;99.90
28336;DHT22;15592;53.656;7.276;2023-02-28T03:20:52;5.00;99.90
28336;DHT22;15592;53.656;7.276;2023-02-28T03:23:31;5.00;99.90
28336;DHT22;15592;53.656;7.276;2023-02-28T03:26:15;5.10;99.90
28336;DHT22;15592;53.656;7.276;2023-02-28T03:33:54;5.10;99.90
28336;DHT22;15592;53.656;7.276;2023-02-28T03:36:30;5.00;99.90
28336;DHT22;15592;53.656;7.276;2023-02-28T03:39:04;5.00;99.90
28336;DHT22;15592;53.656;7.276;2023-02-28T03:41:53;5.00;99.90
28336;DHT22;15592;53.656;7.276;2023-02-28T03:44:32;5.00;99.90
28336;DHT22;15592;53.656;7.276;2023-02-28T03:47:00;5.00;99.90
28336;DHT22;15592;53.656;7.276;2023-02-28T03:49:32;4.90;99.90
28336;DHT22;15592;53.656;7.276;2023-02-28T03:52:01;4.90;99.90
28336;DHT22;15592;53.656;7.276;2023-02-28T03:54:33;4.80;99.90
28336;DHT22;15592;53.656;7.276;2023-02-28T03:59:56;4.70;99.90
28336;DHT22;15592;53.656;7.276;2023-02-28T04:02:22;4.70;99.90
28336;DHT22;15592;53.656;7.276;2023-02-28T04:04:48;4.60;99.90
28336;DHT22;15592;53.656;7.276;2023-02-28T04:07:14;4.60;99.90
28336;DHT22;15592;53.656;7.276;2023-02-28T04:09:41;4.60;99.90
28336;DHT22;15592;53.656;7.276;2023-02-28T04:12:07;4.50;99.90
28336;DHT22;15592;53.656;7.276;2023-02-28T04:14:32;4.50;99.90
28336;DHT22;15592;53.656;7.276;2023-02-28T04:16:58;4.40;99.90
28336;DHT22;15592;53.656;7.276;2023-02-28T04:19:24;4.40;99.90
28336;DHT22;15592;53.656;7.276;2023-02-28T04:21:51;4.40;99.90
28336;DHT22;15592;53.656;7.276;2023-02-28T04:24:23;4.30;99.90
28336;DHT22;15592;53.656;7.276;2023-02-28T04:26:52;4.30;99.90
28336;DHT22;15592;53.656;7.276;2023-02-28T04:29:28;4.30;99.90
28336;DHT22;15592;53.656;7.276;2023-02-28T04:31:55;4.20;99.90
28336;DHT22;15592;53.656;7.276;2023-02-28T04:34:23;4.20;99.90
28336;DHT22;15592;53.656;7.276;2023-02-28T04:36:48;4.10;99.90
28336;DHT22;15592;53.656;7.276;2023-02-28T04:39:16;4.10;99.90
28336;DHT22;15592;53.656;7.276;2023-02-28T04:41:44;4.10;99.90
28336;DHT22;15592;53.656;7.276;2023-02-28T04:44:09;4.10;99.90
28336;DHT22;15592;53.656;7.276;2023-02-28T04:46:35;4.10;99.90
28336;DHT22;15592;53.656;7.276;2023-02-28T04:49:01;4.00;99.90
28336;DHT22;15592;53.656;7.276;2023-02-28T04:51:26;4.00;99.90
28336;DHT22;15592;53.656;7.276;2023-02-28T04:53:52;4.00;99.90
28336;DHT22;15592;53.656;7.276;2023-02-28T04:56:18;4.00;99.90
28336;DHT22;15592;53.656;7.276;2023-02-28T04:58:44;4.00;99.90
28336;DHT22;15592;53.656;7.276;2023-02-28T05:01:20;4.00;99.90
28336;DHT22;15592;53.656;7.276;2023-02-28T05:03:46;4.10;99.90
28336;DHT22;15592;53.656;7.276;2023-02-28T05:06:13;4.10;99.90
28336;DHT22;15592;53.656;7.276;2023-02-28T05:08:39;4.10;99.90
28336;DHT22;15592;53.656;7.276;2023-02-28T05:11:07;4.10;99.90
28336;DHT22;15592;53.656;7.276;2023-02-28T05:13:37;4.10;99.90
28336;DHT22;15592;53.656;7.276;2023-02-28T05:16:03;4.00;99.90
28336;DHT22;15592;53.656;7.276;2023-02-28T05:18:28;4.00;99.90
28336;DHT22;15592;53.656;7.276;2023-02-28T05:20:54;4.10;99.90
28336;DHT22;15592;53.656;7.276;2023-02-28T05:23:20;4.00;99.90
28336;DHT22;15592;53.656;7.276;2023-02-28T05:25:47;4.10;99.90
28336;DHT22;15592;53.656;7.276;2023-02-28T05:28:13;4.00;99.90
28336;DHT22;15592;53.656;7.276;2023-02-28T05:30:39;4.10;99.90
28336;DHT22;15592;53.656;7.276;2023-02-28T05:33:05;4.10;99.90
28336;DHT22;15592;53.656;7.276;2023-02-28T05:35:31;4.20;99.90
28336;DHT22;15592;53.656;7.276;2023-02-28T05:37:56;4.20;99.90
28336;DHT22;15592;53.656;7.276;2023-02-28T05:40:22;4.20;99.90
28336;DHT22;15592;53.656;7.276;2023-02-28T05:42:50;4.20;99.90
28336;DHT22;15592;53.656;7.276;2023-02-28T05:45:15;4.20;99.90
28336;DHT22;15592;53.656;7.276;2023-02-28T05:47:42;4.20;99.90
28336;DHT22;15592;53.656;7.276;2023-02-28T05:50:08;4.20;99.90
28336;DHT22;15592;53.656;7.276;2023-02-28T05:52:36;4.20;99.90
28336;DHT22;15592;53.656;7.276;2023-02-28T05:55:01;4.20;99.90
28336;DHT22;15592;53.656;7.276;2023-02-28T05:57:27;4.20;99.90
28336;DHT22;15592;53.656;7.276;2023-02-28T05:59:53;4.20;99.90
28336;DHT22;15592;53.656;7.276;2023-02-28T06:02:18;4.20;99.90
28336;DHT22;15592;53.656;7.276;2023-02-28T06:04:44;4.10;99.90
28336;DHT22;15592;53.656;7.276;2023-02-28T06:07:11;4.10;99.90
28336;DHT22;15592;53.656;7.276;2023-02-28T06:09:37;4.10;99.90
28336;DHT22;15592;53.656;7.276;2023-02-28T06:12:04;4.10;99.90
28336;DHT22;15592;53.656;7.276;2023-02-28T06:14:32;4.10;99.90
28336;DHT22;15592;53.656;7.276;2023-02-28T06:16:58;4.10;99.90
28336;DHT22;15592;53.656;7.276;2023-02-28T06:19:24;4.00;99.90
28336;DHT22;15592;53.656;7.276;2023-02-28T06:21:54;4.10;99.90
28336;DHT22;15592;53.656;7.276;2023-02-28T06:24:21;4.10;99.90
28336;DHT22;15592;53.656;7.276;2023-02-28T06:26:48;4.00;99.90
28336;DHT22;15592;53.656;7.276;2023-02-28T06:29:14;4.00;99.90
28336;DHT22;15592;53.656;7.276;2023-02-28T06:31:44;4.00;99.90
28336;DHT22;15592;53.656;7.276;2023-02-28T06:34:10;4.00;99.90
28336;DHT22;15592;53.656;7.276;2023-02-28T06:36:38;4.00;99.90
28336;DHT22;15592;53.656;7.276;2023-02-28T06:39:03;4.00;99.90
28336;DHT22;15592;53.656;7.276;2023-02-28T06:41:29;4.00;99.90
28336;DHT22;15592;53.656;7.276;2023-02-28T06:43:55;4.00;99.90
28336;DHT22;15592;53.656;7.276;2023-02-28T06:46:21;4.00;99.90
28336;DHT22;15592;53.656;7.276;2023-02-28T06:48:47;4.00;99.90
28336;DHT22;15592;53.656;7.276;2023-02-28T06:51:15;4.00;99.90
28336;DHT22;15592;53.656;7.276;2023-02-28T06:53:41;4.00;99.90
28336;DHT22;15592;53.656;7.276;2023-02-28T06:56:15;4.10;99.90
28336;DHT22;15592;53.656;7.276;2023-02-28T06:58:41;4.10;99.90
28336;DHT22;15592;53.656;7.276;2023-02-28T07:01:08;4.00;99.90
28336;DHT22;15592;53.656;7.276;2023-02-28T07:03:35;4.00;99.90
28336;DHT22;15592;53.656;7.276;2023-02-28T07:06:01;4.00;99.90
28336;DHT22;15592;53.656;7.276;2023-02-28T07:08:28;4.00;99.90
28336;DHT22;15592;53.656;7.276;2023-02-28T07:10:54;4.00;99.90
28336;DHT22;15592;53.656;7.276;2023-02-28T07:13:20;4.00;99.90
28336;DHT22;15592;53.656;7.276;2023-02-28T07:15:54;4.00;99.90
28336;DHT22;15592;53.656;7.276;2023-02-28T07:18:19;4.00;99.90
28336;DHT22;15592;53.656;7.276;2023-02-28T07:20:45;4.00;99.90
28336;DHT22;15592;53.656;7.276;2023-02-28T07:23:10;4.00;99.90
28336;DHT22;15592;53.656;7.276;2023-02-28T07:25:36;4.00;99.90
28336;DHT22;15592;53.656;7.276;2023-02-28T07:28:01;4.10;99.90
28336;DHT22;15592;53.656;7.276;2023-02-28T07:30:27;4.10;99.90
28336;DHT22;15592;53.656;7.276;2023-02-28T07:32:52;4.10;99.90
28336;DHT22;15592;53.656;7.276;2023-02-28T07:35:20;4.20;99.90
28336;DHT22;15592;53.656;7.276;2023-02-28T07:37:45;4.20;99.90
28336;DHT22;15592;53.656;7.276;2023-02-28T07:40:12;4.20;99.90
28336;DHT22;15592;53.656;7.276;2023-02-28T07:42:39;4.10;99.90
28336;DHT22;15592;53.656;7.276;2023-02-28T07:45:06;4.20;99.90
28336;DHT22;15592;53.656;7.276;2023-02-28T07:47:32;4.20;99.90
28336;DHT22;15592;53.656;7.276;2023-02-28T07:49:57;4.20;99.90
28336;DHT22;15592;53.656;7.276;2023-02-28T07:52:24;4.20;99.90
28336;DHT22;15592;53.656;7.276;2023-02-28T07:54:52;4.20;99.90
28336;DHT22;15592;53.656;7.276;2023-02-28T07:57:18;4.30;99.90
28336;DHT22;15592;53.656;7.276;2023-02-28T07:59:43;4.30;99.90
28336;DHT22;15592;53.656;7.276;2023-02-28T08:02:14;4.30;99.90
28336;DHT22;15592;53.656;7.276;2023-02-28T08:04:39;4.30;99.90
28336;DHT22;15592;53.656;7.276;2023-02-28T08:07:05;4.30;99.90
28336;DHT22;15592;53.656;7.276;2023-02-28T08:09:31;4.30;99.90
28336;DHT22;15592;53.656;7.276;2023-02-28T08:11:57;4.30;99.90
28336;DHT22;15592;53.656;7.276;2023-02-28T08:14:22;4.40;99.90
28336;DHT22;15592;53.656;7.276;2023-02-28T08:16:48;4.40;99.90
28336;DHT22;15592;53.656;7.276;2023-02-28T08:19:13;4.50;99.90
28336;DHT22;15592;53.656;7.276;2023-02-28T08:21:39;4.60;99.90
28336;DHT22;15592;53.656;7.276;2023-02-28T08:24:05;4.60;99.90
28336;DHT22;15592;53.656;7.276;2023-02-28T08:26:31;4.60;99.90
28336;DHT22;15592;53.656;7.276;2023-02-28T08:28:57;4.60;99.90
28336;DHT22;15592;53.656;7.276;2023-02-28T08:31:22;4.60;99.90
28336;DHT22;15592;53.656;7.276;2023-02-28T08:33:48;4.60;99.90
28336;DHT22;15592;53.656;7.276;2023-02-28T08:36:16;4.70;99.90
28336;DHT22;15592;53.656;7.276;2023-02-28T08:38:42;4.70;99.90
28336;DHT22;15592;53.656;7.276;2023-02-28T08:41:11;4.70;99.90
28336;DHT22;15592;53.656;7.276;2023-02-28T08:43:37;4.70;99.90
28336;DHT22;15592;53.656;7.276;2023-02-28T08:46:03;4.60;99.90
28336;DHT22;15592;53.656;7.276;2023-02-28T08:48:31;4.70;99.90
28336;DHT22;15592;53.656;7.276;2023-02-28T08:51:00;4.80;99.90
28336;DHT22;15592;53.656;7.276;2023-02-28T08:53:27;4.80;99.90
28336;DHT22;15592;53.656;7.276;2023-02-28T08:56:00;4.90;99.90
28336;DHT22;15592;53.656;7.276;2023-02-28T08:58:26;5.00;99.90
28336;DHT22;15592;53.656;7.276;2023-02-28T09:00:53;5.10;99.90
28336;DHT22;15592;53.656;7.276;2023-02-28T09:03:19;5.10;99.90
28336;DHT22;15592;53.656;7.276;2023-02-28T09:05:57;5.20;99.90
28336;DHT22;15592;53.656;7.276;2023-02-28T09:08:25;5.20;99.90
28336;DHT22;15592;53.656;7.276;2023-02-28T09:10:50;5.30;99.90
28336;DHT22;15592;53.656;7.276;2023-02-28T09:13:16;5.40;99.90
28336;DHT22;15592;53.656;7.276;2023-02-28T09:15:42;5.40;99.90
28336;DHT22;15592;53.656;7.276;2023-02-28T09:18:07;5.30;99.90
28336;DHT22;15592;53.656;7.276;2023-02-28T09:20:33;5.40;99.90
28336;DHT22;15592;53.656;7.276;2023-02-28T09:22:59;5.40;99.90
28336;DHT22;15592;53.656;7.276;2023-02-28T09:25:24;5.50;99.90
28336;DHT22;15592;53.656;7.276;2023-02-28T09:27:50;5.60;99.90
28336;DHT22;15592;53.656;7.276;2023-02-28T09:30:16;5.60;99.90
28336;DHT22;15592;53.656;7.276;2023-02-28T09:32:41;5.70;99.90
28336;DHT22;15592;53.656;7.276;2023-02-28T09:35:07;5.80;99.90
28336;DHT22;15592;53.656;7.276;2023-02-28T09:37:38;5.80;99.90
28336;DHT22;15592;53.656;7.276;2023-02-28T09:40:05;5.90;99.90
28336;DHT22;15592;53.656;7.276;2023-02-28T09:42:32;5.90;99.90
28336;DHT22;15592;53.656;7.276;2023-02-28T09:45:00;6.00;99.90
28336;DHT22;15592;53.656;7.276;2023-02-28T09:49:57;6.10;99.90
28336;DHT22;15592;53.656;7.276;2023-02-28T09:52:29;6.20;99.90
28336;DHT22;15592;53.656;7.276;2023-02-28T09:55:20;6.30;99.90
28336;DHT22;15592;53.656;7.276;2023-02-28T09:57:48;6.40;99.90
28336;DHT22;15592;53.656;7.276;2023-02-28T10:03:10;6.50;99.90
28336;DHT22;15592;53.656;7.276;2023-02-28T10:06:12;6.60;99.90
28336;DHT22;15592;53.656;7.276;2023-02-28T10:11:16;6.60;99.90
28336;DHT22;15592;53.656;7.276;2023-02-28T10:14:02;6.70;99.90
28336;DHT22;15592;53.656;7.276;2023-02-28T10:17:07;6.70;99.90
28336;DHT22;15592;53.656;7.276;2023-02-28T10:19:43;6.70;99.90
28336;DHT22;15592;53.656;7.276;2023-02-28T10:22:17;6.80;99.90
28336;DHT22;15592;53.656;7.276;2023-02-28T10:24:53;6.80;99.90
28336;DHT22;15592;53.656;7.276;2023-02-28T10:27:29;6.90;99.90
28336;DHT22;15592;53.656;7.276;2023-02-28T10:29:57;7.00;99.90
28336;DHT22;15592;53.656;7.276;2023-02-28T10:32:27;7.00;99.90
28336;DHT22;15592;53.656;7.276;2023-02-28T10:35:15;7.10;99.90
28336;DHT22;15592;53.656;7.276;2023-02-28T10:37:44;7.30;99.90
28336;DHT22;15592;53.656;7.276;2023-02-28T10:43:13;7.60;99.90
28336;DHT22;15592;53.656;7.276;2023-02-28T10:45:58;7.70;99.90
28336;DHT22;15592;53.656;7.276;2023-02-28T10:48:29;7.90;99.90
28336;DHT22;15592;53.656;7.276;2023-02-28T10:50:55;8.00;99.90
28336;DHT22;15592;53.656;7.276;2023-02-28T10:58:30;8.10;99.90
28336;DHT22;15592;53.656;7.276;2023-02-28T11:00:57;8.20;99.90
28336;DHT22;15592;53.656;7.276;2023-02-28T11:03:25;8.30;99.90
28336;DHT22;15592;53.656;7.276;2023-02-28T11:05:50;8.20;99.90
28336;DHT22;15592;53.656;7.276;2023-02-28T11:08:17;8.10;99.90
28336;DHT22;15592;53.656;7.276;2023-02-28T11:10:54;8.00;99.90
28336;DHT22;15592;53.656;7.276;2023-02-28T11:13:26;7.90;99.90
28336;DHT22;15592;53.656;7.276;2023-02-28T11:15:58;7.70;99.90
28336;DHT22;15592;53.656;7.276;2023-02-28T11:19:03;7.50;99.90
28336;DHT22;15592;53.656;7.276;2023-02-28T11:21:31;7.40;99.90
28336;DHT22;15592;53.656;7.276;2023-02-28T11:26:45;7.20;99.90
28336;DHT22;15592;53.656;7.276;2023-02-28T11:29:20;7.20;99.90
28336;DHT22;15592;53.656;7.276;2023-02-28T11:32:16;7.10;99.90
28336;DHT22;15592;53.656;7.276;2023-02-28T11:34:42;7.20;99.90
28336;DHT22;15592;53.656;7.276;2023-02-28T11:37:18;7.20;99.90
28336;DHT22;15592;53.656;7.276;2023-02-28T11:39:45;7.20;99.90
28336;DHT22;15592;53.656;7.276;2023-02-28T11:45:03;7.20;99.90
28336;DHT22;15592;53.656;7.276;2023-02-28T11:53:10;7.20;99.90
28336;DHT22;15592;53.656;7.276;2023-02-28T11:55:54;7.20;99.90
28336;DHT22;15592;53.656;7.276;2023-02-28T11:58:47;7.20;99.90
28336;DHT22;15592;53.656;7.276;2023-02-28T12:01:31;7.20;99.90
28336;DHT22;15592;53.656;7.276;2023-02-28T12:15:34;7.00;99.90
28336;DHT22;15592;53.656;7.276;2023-02-28T12:21:05;6.90;99.90
28336;DHT22;15592;53.656;7.276;2023-02-28T12:26:19;6.80;99.90
28336;DHT22;15592;53.656;7.276;2023-02-28T12:29:02;6.70;99.90
28336;DHT22;15592;53.656;7.276;2023-02-28T12:31:35;6.70;99.90
28336;DHT22;15592;53.656;7.276;2023-02-28T12:34:04;6.60;99.90
28336;DHT22;15592;53.656;7.276;2023-02-28T12:36:31;6.70;99.90
28336;DHT22;15592;53.656;7.276;2023-02-28T12:39:16;6.70;99.90
28336;DHT22;15592;53.656;7.276;2023-02-28T12:41:56;6.70;99.90
28336;DHT22;15592;53.656;7.276;2023-02-28T12:44:32;6.70;99.90
28336;DHT22;15592;53.656;7.276;2023-02-28T12:47:03;6.70;99.90
28336;DHT22;15592;53.656;7.276;2023-02-28T12:49:34;6.80;99.90
28336;DHT22;15592;53.656;7.276;2023-02-28T12:52:03;6.70;99.90
28336;DHT22;15592;53.656;7.276;2023-02-28T12:54:31;6.70;99.90
28336;DHT22;15592;53.656;7.276;2023-02-28T13:00:12;6.90;99.90
28336;DHT22;15592;53.656;7.276;2023-02-28T13:10:48;6.70;99.90
28336;DHT22;15592;53.656;7.276;2023-02-28T13:13:22;6.60;99.90
28336;DHT22;15592;53.656;7.276;2023-02-28T13:18:39;6.60;99.90
28336;DHT22;15592;53.656;7.276;2023-02-28T13:21:26;6.60;99.90
28336;DHT22;15592;53.656;7.276;2023-02-28T13:34:27;6.80;99.90
28336;DHT22;15592;53.656;7.276;2023-02-28T13:40:26;6.70;99.90
28336;DHT22;15592;53.656;7.276;2023-02-28T13:42:46;6.60;99.90
28336;DHT22;15592;53.656;7.276;2023-02-28T13:45:28;6.30;99.90
28336;DHT22;15592;53.656;7.276;2023-02-28T13:58:28;5.90;99.90
28336;DHT22;15592;53.656;7.276;2023-02-28T14:06:35;6.00;99.90
28336;DHT22;15592;53.656;7.276;2023-02-28T14:11:39;6.10;99.90
28336;DHT22;15592;53.656;7.276;2023-02-28T14:17:05;6.30;99.90
28336;DHT22;15592;53.656;7.276;2023-02-28T14:19:34;6.40;99.90
28336;DHT22;15592;53.656;7.276;2023-02-28T14:22:04;6.40;99.90
28336;DHT22;15592;53.656;7.276;2023-02-28T14:36:11;6.30;99.90
28336;DHT22;15592;53.656;7.276;2023-02-28T14:38:56;6.40;99.90
28336;DHT22;15592;53.656;7.276;2023-02-28T14:41:49;6.30;99.90
28336;DHT22;15592;53.656;7.276;2023-02-28T14:46:53;6.30;99.90
28336;DHT22;15592;53.656;7.276;2023-02-28T14:49:32;6.30;99.90
28336;DHT22;15592;53.656;7.276;2023-02-28T14:54:38;6.30;99.90
28336;DHT22;15592;53.656;7.276;2023-02-28T14:57:04;6.20;99.90
28336;DHT22;15592;53.656;7.276;2023-02-28T14:59:33;6.20;99.90
28336;DHT22;15592;53.656;7.276;2023-02-28T15:02:21;6.20;99.90
28336;DHT22;15592;53.656;7.276;2023-02-28T15:04:59;6.20;99.90
28336;DHT22;15592;53.656;7.276;2023-02-28T15:07:26;6.10;99.90
28336;DHT22;15592;53.656;7.276;2023-02-28T15:10:22;6.10;99.90
28336;DHT22;15592;53.656;7.276;2023-02-28T15:12:54;6.10;99.90
28336;DHT22;15592;53.656;7.276;2023-02-28T15:15:45;6.20;99.90
28336;DHT22;15592;53.656;7.276;2023-02-28T15:18:27;6.20;99.90
28336;DHT22;15592;53.656;7.276;2023-02-28T15:21:08;6.10;99.90
28336;DHT22;15592;53.656;7.276;2023-02-28T15:23:36;6.10;99.90
28336;DHT22;15592;53.656;7.276;2023-02-28T15:26:03;6.10;99.90
28336;DHT22;15592;53.656;7.276;2023-02-28T15:28:30;6.10;99.90
28336;DHT22;15592;53.656;7.276;2023-02-28T15:31:01;6.10;99.90
28336;DHT22;15592;53.656;7.276;2023-02-28T15:33:32;6.00;99.90
28336;DHT22;15592;53.656;7.276;2023-02-28T15:36:12;6.10;99.90
28336;DHT22;15592;53.656;7.276;2023-02-28T15:38:51;6.10;99.90
28336;DHT22;15592;53.656;7.276;2023-02-28T15:41:29;6.10;99.90
28336;DHT22;15592;53.656;7.276;2023-02-28T15:44:24;6.00;99.90
28336;DHT22;15592;53.656;7.276;2023-02-28T15:47:11;6.00;99.90
28336;DHT22;15592;53.656;7.276;2023-02-28T15:52:28;5.90;99.90
28336;DHT22;15592;53.656;7.276;2023-02-28T15:54:54;5.90;99.90
28336;DHT22;15592;53.656;7.276;2023-02-28T15:57:25;5.90;99.90
28336;DHT22;15592;53.656;7.276;2023-02-28T15:59:59;5.90;99.90
28336;DHT22;15592;53.656;7.276;2023-02-28T16:02:37;5.90;99.90
28336;DHT22;15592;53.656;7.276;2023-02-28T16:07:36;5.90;99.90
28336;DHT22;15592;53.656;7.276;2023-02-28T16:10:03;5.80;99.90
28336;DHT22;15592;53.656;7.276;2023-02-28T16:12:31;5.80;99.90
28336;DHT22;15592;53.656;7.276;2023-02-28T16:14:59;5.80;99.90
28336;DHT22;15592;53.656;7.276;2023-02-28T16:17:28;5.80;99.90
28336;DHT22;15592;53.656;7.276;2023-02-28T16:19:55;5.70;99.90
28336;DHT22;15592;53.656;7.276;2023-02-28T16:22:21;5.70;99.90
28336;DHT22;15592;53.656;7.276;2023-02-28T16:24:47;5.70;99.90
28336;DHT22;15592;53.656;7.276;2023-02-28T16:27:31;5.60;99.90
28336;DHT22;15592;53.656;7.276;2023-02-28T16:29:56;5.60;99.90
28336;DHT22;15592;53.656;7.276;2023-02-28T16:32:22;5.50;99.90
28336;DHT22;15592;53.656;7.276;2023-02-28T16:34:48;5.40;99.90
28336;DHT22;15592;53.656;7.276;2023-02-28T16:37:16;5.40;99.90
28336;DHT22;15592;53.656;7.276;2023-02-28T16:39:43;5.30;99.90
28336;DHT22;15592;53.656;7.276;2023-02-28T16:42:29;5.30;99.90
28336;DHT22;15592;53.656;7.276;2023-02-28T16:44:56;5.20;99.90
28336;DHT22;15592;53.656;7.276;2023-02-28T16:47:23;5.20;99.90
28336;DHT22;15592;53.656;7.276;2023-02-28T16:49:52;5.10;99.90
28336;DHT22;15592;53.656;7.276;2023-02-28T16:52:17;5.00;99.90
28336;DHT22;15592;53.656;7.276;2023-02-28T16:54:43;4.90;99.90
28336;DHT22;15592;53.656;7.276;2023-02-28T16:57:20;4.90;99.90
28336;DHT22;15592;53.656;7.276;2023-02-28T16:59:47;4.80;99.90
28336;DHT22;15592;53.656;7.276;2023-02-28T17:02:17;4.80;99.90
28336;DHT22;15592;53.656;7.276;2023-02-28T17:04:46;4.70;99.90
28336;DHT22;15592;53.656;7.276;2023-02-28T17:07:14;4.60;99.90
28336;DHT22;15592;53.656;7.276;2023-02-28T17:09:41;4.60;99.90
28336;DHT22;15592;53.656;7.276;2023-02-28T17:12:07;4.50;99.90
28336;DHT22;15592;53.656;7.276;2023-02-28T17:14:33;4.50;99.90
28336;DHT22;15592;53.656;7.276;2023-02-28T17:16:58;4.40;99.90
28336;DHT22;15592;53.656;7.276;2023-02-28T17:19:24;4.40;99.90
28336;DHT22;15592;53.656;7.276;2023-02-28T17:21:49;4.40;99.90
28336;DHT22;15592;53.656;7.276;2023-02-28T17:24:15;4.40;99.90
28336;DHT22;15592;53.656;7.276;2023-02-28T17:26:41;4.30;99.90
28336;DHT22;15592;53.656;7.276;2023-02-28T17:29:15;4.30;99.90
28336;DHT22;15592;53.656;7.276;2023-02-28T17:31:41;4.30;99.90
28336;DHT22;15592;53.656;7.276;2023-02-28T17:34:07;4.20;99.90
28336;DHT22;15592;53.656;7.276;2023-02-28T17:36:33;4.20;99.90
28336;DHT22;15592;53.656;7.276;2023-02-28T17:39:01;4.20;99.90
28336;DHT22;15592;53.656;7.276;2023-02-28T17:41:27;4.20;99.90
28336;DHT22;15592;53.656;7.276;2023-02-28T17:43:55;4.20;99.90
28336;DHT22;15592;53.656;7.276;2023-02-28T17:46:23;4.20;99.90
28336;DHT22;15592;53.656;7.276;2023-02-28T17:48:54;4.10;99.90
28336;DHT22;15592;53.656;7.276;2023-02-28T17:51:22;4.10;99.90
28336;DHT22;15592;53.656;7.276;2023-02-28T17:53:48;4.10;99.90
28336;DHT22;15592;53.656;7.276;2023-02-28T17:56:25;4.10;99.90
28336;DHT22;15592;53.656;7.276;2023-02-28T17:58:52;4.10;99.90
28336;DHT22;15592;53.656;7.276;2023-02-28T18:01:19;4.10;99.90
28336;DHT22;15592;53.656;7.276;2023-02-28T18:03:46;4.10;99.90
28336;DHT22;15592;53.656;7.276;2023-02-28T18:06:28;4.10;99.90
28336;DHT22;15592;53.656;7.276;2023-02-28T18:08:56;4.10;99.90
28336;DHT22;15592;53.656;7.276;2023-02-28T18:11:22;4.10;99.90
28336;DHT22;15592;53.656;7.276;2023-02-28T18:13:51;4.10;99.90
28336;DHT22;15592;53.656;7.276;2023-02-28T18:16:17;4.10;99.90
28336;DHT22;15592;53.656;7.276;2023-02-28T18:18:44;4.00;99.90
28336;DHT22;15592;53.656;7.276;2023-02-28T18:21:11;4.00;99.90
28336;DHT22;15592;53.656;7.276;2023-02-28T18:23:38;3.90;99.90
28336;DHT22;15592;53.656;7.276;2023-02-28T18:26:12;4.00;99.90